RYR147 LFPG-EDDM
Flight info
| Callsign | RYR147 |
|---|---|
| Flight time | 1h 5m |
| Altitude | 31000 |
| Route | LANVI DCT LUPEN/N0430F270 T107 ROKIL ROKIL1A |
| Aircraft | B738/M-SDE2E3FGHIRWXY/LB1 |
Departure
| Time | 2026-04-30 20:43 |
|---|---|
| Airport | Charles de Gaulle International Airport (LFPG) |
Arrival
| Time | 2026-04-30 21:49 |
|---|---|
| Airport | Munich Airport (EDDM) |
| Time | Latitude | Longitude | Altitude | Speed | Heading |
|---|---|---|---|---|---|
| 2026-04-30 20:16 | 49.01654 | 2.53909 | 360 ft | 0 kts | 193° |
| 2026-04-30 20:35 | 49.01681 | 2.53918 | 361 ft | 2 kts | 194° |
| 2026-04-30 20:36 | 49.01695 | 2.53926 | 361 ft | 2 kts | 221° |
| 2026-04-30 20:36 | 49.01704 | 2.53944 | 361 ft | 2 kts | 248° |
| 2026-04-30 20:36 | 49.01703 | 2.53988 | 362 ft | 1 kts | 302° |
| 2026-04-30 20:37 | 49.01699 | 2.53995 | 362 ft | 1 kts | 308° |
| 2026-04-30 20:37 | 49.01698 | 2.53998 | 362 ft | 0 kts | 307° |
| 2026-04-30 20:39 | 49.01711 | 2.53975 | 362 ft | 4 kts | 314° |
| 2026-04-30 20:39 | 49.01758 | 2.53935 | 362 ft | 12 kts | 329° |
| 2026-04-30 20:39 | 49.01788 | 2.53762 | 361 ft | 20 kts | 266° |
| 2026-04-30 20:40 | 49.01781 | 2.53649 | 361 ft | 13 kts | 265° |
| 2026-04-30 20:40 | 49.01770 | 2.53446 | 361 ft | 24 kts | 267° |
| 2026-04-30 20:40 | 49.01759 | 2.53239 | 364 ft | 0 kts | 264° |
| 2026-04-30 20:41 | 49.01752 | 2.53134 | 364 ft | 15 kts | 265° |
| 2026-04-30 20:41 | 49.01744 | 2.52981 | 364 ft | 0 kts | 266° |
| 2026-04-30 20:41 | 49.01740 | 2.52918 | 365 ft | 11 kts | 266° |
| 2026-04-30 20:41 | 49.01731 | 2.52722 | 366 ft | 25 kts | 266° |
| 2026-04-30 20:42 | 49.01727 | 2.52444 | 369 ft | 20 kts | 290° |
| 2026-04-30 20:42 | 49.01875 | 2.52354 | 371 ft | 30 kts | 356° |
| 2026-04-30 20:42 | 49.02144 | 2.52451 | 371 ft | 0 kts | 80° |
| 2026-04-30 20:43 | 49.02172 | 2.52961 | 375 ft | 97 kts | 85° |
| 2026-04-30 20:43 | 49.02239 | 2.54437 | 412 ft | 176 kts | 86° |
| 2026-04-30 20:43 | 49.02343 | 2.56257 | 1592 ft | 172 kts | 88° |
| 2026-04-30 20:44 | 49.02573 | 2.59900 | 2873 ft | 190 kts | 89° |
| 2026-04-30 20:44 | 49.02663 | 2.61996 | 3291 ft | 207 kts | 89° |
| 2026-04-30 20:44 | 49.02872 | 2.66669 | 4194 ft | 234 kts | 88° |
| 2026-04-30 20:45 | 49.03138 | 2.71714 | 5463 ft | 246 kts | 87° |
| 2026-04-30 20:45 | 49.03275 | 2.74399 | 5939 ft | 262 kts | 87° |
| 2026-04-30 20:45 | 49.03412 | 2.77214 | 6581 ft | 272 kts | 87° |
| 2026-04-30 20:46 | 49.03830 | 2.85825 | 9014 ft | 277 kts | 87° |
| 2026-04-30 20:46 | 49.03972 | 2.88776 | 9777 ft | 280 kts | 87° |
| 2026-04-30 20:47 | 49.04212 | 2.94759 | 11061 ft | 298 kts | 93° |
| 2026-04-30 20:47 | 49.03873 | 2.97947 | 11525 ft | 312 kts | 104° |
| 2026-04-30 20:48 | 49.02577 | 3.04562 | 12397 ft | 342 kts | 107° |
| 2026-04-30 20:48 | 49.01909 | 3.08072 | 13023 ft | 350 kts | 105° |
| 2026-04-30 20:48 | 49.01275 | 3.11607 | 13850 ft | 351 kts | 105° |
| 2026-04-30 20:48 | 49.00653 | 3.15202 | 14628 ft | 354 kts | 104° |
| 2026-04-30 20:49 | 49.00032 | 3.18847 | 15358 ft | 359 kts | 104° |
| 2026-04-30 20:49 | 48.99402 | 3.22564 | 16160 ft | 362 kts | 104° |
| 2026-04-30 20:49 | 48.98778 | 3.26244 | 16867 ft | 366 kts | 104° |
| 2026-04-30 20:50 | 48.97493 | 3.33781 | 18311 ft | 372 kts | 105° |
| 2026-04-30 20:50 | 48.96838 | 3.37604 | 18975 ft | 377 kts | 105° |
| 2026-04-30 20:50 | 48.96176 | 3.41450 | 19680 ft | 379 kts | 105° |
| 2026-04-30 20:50 | 48.95515 | 3.45299 | 20354 ft | 382 kts | 105° |
| 2026-04-30 20:51 | 48.94836 | 3.49240 | 21029 ft | 385 kts | 105° |
| 2026-04-30 20:51 | 48.93698 | 3.57183 | 22337 ft | 390 kts | 99° |
| 2026-04-30 20:51 | 48.93382 | 3.61296 | 22903 ft | 394 kts | 96° |
| 2026-04-30 20:52 | 48.93147 | 3.65436 | 23519 ft | 396 kts | 96° |
| 2026-04-30 20:52 | 48.92944 | 3.69585 | 23799 ft | 406 kts | 96° |
| 2026-04-30 20:52 | 48.92520 | 3.78270 | 25006 ft | 409 kts | 96° |
| 2026-04-30 20:53 | 48.92307 | 3.82543 | 25670 ft | 409 kts | 96° |
| 2026-04-30 20:53 | 48.92081 | 3.86897 | 26106 ft | 414 kts | 96° |
| 2026-04-30 20:53 | 48.91852 | 3.91216 | 26618 ft | 417 kts | 96° |
| 2026-04-30 20:54 | 48.91367 | 4.00098 | 27567 ft | 424 kts | 96° |
| 2026-04-30 20:54 | 48.91118 | 4.04566 | 27996 ft | 428 kts | 96° |
| 2026-04-30 20:54 | 48.90864 | 4.09073 | 28495 ft | 431 kts | 96° |
| 2026-04-30 20:55 | 48.90243 | 4.18092 | 29733 ft | 428 kts | 99° |
| 2026-04-30 20:55 | 48.89616 | 4.22448 | 30357 ft | 425 kts | 107° |
| 2026-04-30 20:55 | 48.88607 | 4.26675 | 30925 ft | 424 kts | 113° |
| 2026-04-30 20:56 | 48.85932 | 4.34687 | 31205 ft | 427 kts | 118° |
| 2026-04-30 20:56 | 48.84488 | 4.38553 | 31207 ft | 424 kts | 119° |
| 2026-04-30 20:57 | 48.80057 | 4.50256 | 31205 ft | 425 kts | 119° |
| 2026-04-30 20:57 | 48.77132 | 4.58071 | 31205 ft | 425 kts | 118° |
| 2026-04-30 20:58 | 48.72780 | 4.69773 | 31209 ft | 426 kts | 119° |
| 2026-04-30 20:58 | 48.69877 | 4.77580 | 31209 ft | 425 kts | 119° |
| 2026-04-30 20:59 | 48.65521 | 4.89265 | 31216 ft | 427 kts | 118° |
| 2026-04-30 21:00 | 48.59683 | 5.04850 | 31210 ft | 427 kts | 118° |
| 2026-04-30 21:01 | 48.55304 | 5.16474 | 31207 ft | 426 kts | 118° |
| 2026-04-30 21:02 | 48.50903 | 5.28114 | 31213 ft | 426 kts | 118° |
| 2026-04-30 21:02 | 48.47964 | 5.35856 | 31220 ft | 427 kts | 118° |
| 2026-04-30 21:03 | 48.45012 | 5.43609 | 31229 ft | 426 kts | 118° |
| 2026-04-30 21:03 | 48.42077 | 5.51296 | 31235 ft | 427 kts | 118° |
| 2026-04-30 21:04 | 48.39116 | 5.59028 | 31234 ft | 427 kts | 118° |
| 2026-04-30 21:04 | 48.34663 | 5.70614 | 31237 ft | 427 kts | 119° |
| 2026-04-30 21:05 | 48.32279 | 5.78762 | 31236 ft | 426 kts | 104° |
| 2026-04-30 21:05 | 48.31743 | 5.87526 | 31241 ft | 424 kts | 88° |
| 2026-04-30 21:06 | 48.32194 | 5.96349 | 31237 ft | 424 kts | 84° |
| 2026-04-30 21:06 | 48.32867 | 6.05128 | 31231 ft | 423 kts | 83° |
| 2026-04-30 21:07 | 48.33535 | 6.13855 | 31226 ft | 423 kts | 84° |
| 2026-04-30 21:07 | 48.34172 | 6.22648 | 31232 ft | 423 kts | 84° |
| 2026-04-30 21:08 | 48.34781 | 6.31407 | 31237 ft | 423 kts | 84° |
| 2026-04-30 21:08 | 48.35374 | 6.40169 | 31241 ft | 424 kts | 84° |
| 2026-04-30 21:09 | 48.35963 | 6.49008 | 31247 ft | 423 kts | 83° |
| 2026-04-30 21:09 | 48.36539 | 6.57777 | 31241 ft | 423 kts | 84° |
| 2026-04-30 21:10 | 48.37106 | 6.66501 | 31246 ft | 423 kts | 84° |
| 2026-04-30 21:10 | 48.37671 | 6.75307 | 31252 ft | 423 kts | 84° |
| 2026-04-30 21:11 | 48.38226 | 6.84053 | 31255 ft | 424 kts | 84° |
| 2026-04-30 21:11 | 48.38778 | 6.92855 | 31253 ft | 423 kts | 84° |
| 2026-04-30 21:12 | 48.39324 | 7.01685 | 31254 ft | 422 kts | 84° |
| 2026-04-30 21:12 | 48.39859 | 7.10446 | 31257 ft | 423 kts | 84° |
| 2026-04-30 21:13 | 48.40388 | 7.19201 | 31260 ft | 421 kts | 84° |
| 2026-04-30 21:13 | 48.40905 | 7.27883 | 31266 ft | 420 kts | 84° |
| 2026-04-30 21:14 | 48.41420 | 7.36642 | 31276 ft | 422 kts | 83° |
| 2026-04-30 21:14 | 48.41928 | 7.45389 | 31286 ft | 420 kts | 83° |
| 2026-04-30 21:15 | 48.42430 | 7.54159 | 31295 ft | 421 kts | 83° |
| 2026-04-30 21:15 | 48.42924 | 7.62918 | 31301 ft | 419 kts | 83° |
| 2026-04-30 21:16 | 48.43408 | 7.71610 | 31304 ft | 419 kts | 84° |
| 2026-04-30 21:16 | 48.43771 | 7.80321 | 31302 ft | 420 kts | 86° |
| 2026-04-30 21:17 | 48.43933 | 7.89111 | 31305 ft | 421 kts | 86° |
| 2026-04-30 21:17 | 48.44068 | 7.97868 | 31304 ft | 420 kts | 86° |
| 2026-04-30 21:18 | 48.44215 | 8.06642 | 31293 ft | 418 kts | 86° |
| 2026-04-30 21:18 | 48.44368 | 8.15326 | 31289 ft | 417 kts | 86° |
| 2026-04-30 21:19 | 48.44523 | 8.24069 | 31288 ft | 419 kts | 86° |
| 2026-04-30 21:19 | 48.44672 | 8.32761 | 31286 ft | 417 kts | 85° |
| 2026-04-30 21:20 | 48.44819 | 8.41507 | 31286 ft | 418 kts | 85° |
| 2026-04-30 21:20 | 48.44957 | 8.50206 | 31287 ft | 417 kts | 85° |
| 2026-04-30 21:21 | 48.45088 | 8.58891 | 31291 ft | 415 kts | 85° |
| 2026-04-30 21:22 | 48.45273 | 8.71882 | 31290 ft | 415 kts | 86° |
| 2026-04-30 21:23 | 48.45498 | 8.89233 | 31296 ft | 415 kts | 86° |
| 2026-04-30 21:23 | 48.45648 | 9.02230 | 31296 ft | 413 kts | 86° |
| 2026-04-30 21:24 | 48.45740 | 9.10907 | 31296 ft | 413 kts | 85° |
| 2026-04-30 21:24 | 48.45826 | 9.19516 | 31293 ft | 413 kts | 85° |
| 2026-04-30 21:25 | 48.45944 | 9.32472 | 31294 ft | 413 kts | 85° |
| 2026-04-30 21:26 | 48.46045 | 9.45399 | 31289 ft | 411 kts | 85° |
| 2026-04-30 21:27 | 48.46131 | 9.58226 | 31293 ft | 410 kts | 85° |
| 2026-04-30 21:27 | 48.46182 | 9.66779 | 31285 ft | 409 kts | 85° |
| 2026-04-30 21:28 | 48.46217 | 9.75187 | 30544 ft | 396 kts | 85° |
| 2026-04-30 21:28 | 48.46232 | 9.79298 | 29958 ft | 397 kts | 85° |
| 2026-04-30 21:28 | 48.46262 | 9.87631 | 28487 ft | 399 kts | 85° |
| 2026-04-30 21:29 | 48.46276 | 9.91795 | 27849 ft | 404 kts | 86° |
| 2026-04-30 21:29 | 48.46297 | 10.04219 | 26160 ft | 385 kts | 86° |
| 2026-04-30 21:30 | 48.46308 | 10.12346 | 25000 ft | 389 kts | 86° |
| 2026-04-30 21:31 | 48.46309 | 10.24208 | 23281 ft | 381 kts | 86° |
| 2026-04-30 21:31 | 48.46303 | 10.31984 | 22143 ft | 363 kts | 86° |
| 2026-04-30 21:32 | 48.46297 | 10.39658 | 21011 ft | 370 kts | 86° |
| 2026-04-30 21:32 | 48.46289 | 10.43446 | 20445 ft | 359 kts | 86° |
| 2026-04-30 21:32 | 48.46279 | 10.47206 | 19878 ft | 359 kts | 86° |
| 2026-04-30 21:32 | 48.46272 | 10.50985 | 19311 ft | 365 kts | 86° |
| 2026-04-30 21:33 | 48.46263 | 10.54724 | 18734 ft | 357 kts | 86° |
| 2026-04-30 21:33 | 48.46351 | 10.62049 | 17635 ft | 354 kts | 82° |
| 2026-04-30 21:33 | 48.46619 | 10.65732 | 17063 ft | 351 kts | 79° |
| 2026-04-30 21:34 | 48.46954 | 10.69293 | 16507 ft | 339 kts | 79° |
| 2026-04-30 21:34 | 48.47643 | 10.76335 | 15422 ft | 346 kts | 79° |
| 2026-04-30 21:34 | 48.47966 | 10.79882 | 14858 ft | 336 kts | 80° |
| 2026-04-30 21:35 | 48.48264 | 10.83290 | 14340 ft | 331 kts | 80° |
| 2026-04-30 21:35 | 48.48562 | 10.86754 | 13791 ft | 337 kts | 81° |
| 2026-04-30 21:35 | 48.48859 | 10.90235 | 13249 ft | 330 kts | 81° |
| 2026-04-30 21:35 | 48.49141 | 10.93585 | 12726 ft | 323 kts | 81° |
| 2026-04-30 21:36 | 48.49429 | 10.96975 | 12191 ft | 330 kts | 81° |
| 2026-04-30 21:36 | 48.49717 | 11.00381 | 11640 ft | 326 kts | 81° |
| 2026-04-30 21:37 | 48.50516 | 11.09899 | 10869 ft | 298 kts | 81° |
| 2026-04-30 21:37 | 48.50770 | 11.12927 | 10747 ft | 285 kts | 81° |
| 2026-04-30 21:37 | 48.51006 | 11.15786 | 10620 ft | 266 kts | 81° |
| 2026-04-30 21:37 | 48.51227 | 11.18454 | 10488 ft | 255 kts | 81° |
| 2026-04-30 21:38 | 48.51517 | 11.21128 | 10372 ft | 256 kts | 78° |
| 2026-04-30 21:38 | 48.51883 | 11.23754 | 10362 ft | 257 kts | 76° |
| 2026-04-30 21:38 | 48.52275 | 11.26372 | 10369 ft | 259 kts | 76° |
| 2026-04-30 21:38 | 48.52669 | 11.29023 | 10353 ft | 258 kts | 76° |
| 2026-04-30 21:39 | 48.53051 | 11.31659 | 10332 ft | 256 kts | 76° |
| 2026-04-30 21:39 | 48.53422 | 11.34259 | 10056 ft | 248 kts | 77° |
| 2026-04-30 21:39 | 48.53773 | 11.36737 | 9900 ft | 235 kts | 76° |
| 2026-04-30 21:39 | 48.54110 | 11.39105 | 9506 ft | 233 kts | 77° |
| 2026-04-30 21:40 | 48.54444 | 11.41460 | 9109 ft | 230 kts | 77° |
| 2026-04-30 21:40 | 48.54778 | 11.43814 | 8720 ft | 226 kts | 77° |
| 2026-04-30 21:40 | 48.55103 | 11.46106 | 8264 ft | 226 kts | 77° |
| 2026-04-30 21:40 | 48.55431 | 11.48425 | 7801 ft | 226 kts | 78° |
| 2026-04-30 21:41 | 48.55718 | 11.50725 | 7351 ft | 223 kts | 83° |
| 2026-04-30 21:41 | 48.55584 | 11.53038 | 6887 ft | 224 kts | 107° |
| 2026-04-30 21:41 | 48.54764 | 11.55002 | 6448 ft | 226 kts | 130° |
| 2026-04-30 21:41 | 48.53541 | 11.56495 | 6043 ft | 227 kts | 144° |
| 2026-04-30 21:42 | 48.52033 | 11.57227 | 5608 ft | 234 kts | 171° |
| 2026-04-30 21:42 | 48.50435 | 11.56856 | 5308 ft | 234 kts | 191° |
| 2026-04-30 21:42 | 48.48925 | 11.56129 | 5141 ft | 222 kts | 190° |
| 2026-04-30 21:42 | 48.47453 | 11.55474 | 4826 ft | 218 kts | 188° |
| 2026-04-30 21:43 | 48.45991 | 11.54852 | 4466 ft | 217 kts | 188° |
| 2026-04-30 21:43 | 48.44552 | 11.54224 | 4152 ft | 215 kts | 188° |
| 2026-04-30 21:43 | 48.43123 | 11.53589 | 4017 ft | 212 kts | 188° |
| 2026-04-30 21:43 | 48.41704 | 11.52966 | 4007 ft | 214 kts | 187° |
| 2026-04-30 21:44 | 48.40267 | 11.52342 | 4005 ft | 214 kts | 188° |
| 2026-04-30 21:44 | 48.38837 | 11.51717 | 3998 ft | 213 kts | 187° |
| 2026-04-30 21:44 | 48.37403 | 11.51383 | 3997 ft | 205 kts | 168° |
| 2026-04-30 21:44 | 48.36129 | 11.52051 | 4002 ft | 190 kts | 137° |
| 2026-04-30 21:45 | 48.35230 | 11.53441 | 4002 ft | 183 kts | 121° |
| 2026-04-30 21:45 | 48.34636 | 11.55109 | 3994 ft | 179 kts | 103° |
| 2026-04-30 21:45 | 48.34626 | 11.56953 | 3997 ft | 179 kts | 79° |
| 2026-04-30 21:45 | 48.34852 | 11.58749 | 3973 ft | 170 kts | 83° |
| 2026-04-30 21:46 | 48.34991 | 11.60491 | 3687 ft | 171 kts | 84° |
| 2026-04-30 21:46 | 48.35129 | 11.62237 | 3438 ft | 164 kts | 84° |
| 2026-04-30 21:46 | 48.35261 | 11.63845 | 3260 ft | 145 kts | 84° |
| 2026-04-30 21:46 | 48.35379 | 11.65303 | 3009 ft | 136 kts | 85° |
| 2026-04-30 21:47 | 48.35487 | 11.66726 | 2837 ft | 137 kts | 85° |
| 2026-04-30 21:47 | 48.35596 | 11.68112 | 2662 ft | 132 kts | 84° |
| 2026-04-30 21:47 | 48.35703 | 11.69478 | 2469 ft | 131 kts | 84° |
| 2026-04-30 21:47 | 48.35810 | 11.70867 | 2288 ft | 135 kts | 84° |
| 2026-04-30 21:48 | 48.35922 | 11.72271 | 2102 ft | 138 kts | 84° |
| 2026-04-30 21:48 | 48.36035 | 11.73735 | 1910 ft | 142 kts | 84° |
| 2026-04-30 21:48 | 48.36151 | 11.75223 | 1716 ft | 145 kts | 83° |
| 2026-04-30 21:48 | 48.36269 | 11.76711 | 1525 ft | 144 kts | 83° |
| 2026-04-30 21:49 | 48.36382 | 11.78118 | 1456 ft | 112 kts | 83° |
| 2026-04-30 21:49 | 48.36445 | 11.78928 | 1456 ft | 44 kts | 83° |
| 2026-04-30 21:49 | 48.36438 | 11.79264 | 1454 ft | 25 kts | 102° |
| 2026-04-30 21:49 | 48.36378 | 11.79510 | 1452 ft | 25 kts | 114° |
| 2026-04-30 21:50 | 48.36311 | 11.79737 | 1452 ft | 19 kts | 120° |
| 2026-04-30 21:50 | 48.36200 | 11.79839 | 1452 ft | 17 kts | 172° |
| 2026-04-30 21:50 | 48.36124 | 11.79746 | 1454 ft | 15 kts | 259° |
| 2026-04-30 21:50 | 48.36115 | 11.79590 | 1455 ft | 13 kts | 265° |
| 2026-04-30 21:51 | 48.36073 | 11.79491 | 1458 ft | 10 kts | 195° |
| 2026-04-30 21:51 | 48.36005 | 11.79494 | 1460 ft | 8 kts | 175° |
| 2026-04-30 21:51 | 48.35950 | 11.79502 | 1461 ft | 7 kts | 173° |
| 2026-04-30 21:51 | 48.35900 | 11.79512 | 1462 ft | 8 kts | 173° |
| 2026-04-30 21:52 | 48.35829 | 11.79525 | 1463 ft | 12 kts | 173° |
| 2026-04-30 21:52 | 48.35737 | 11.79557 | 1462 ft | 12 kts | 135° |
| 2026-04-30 21:52 | 48.35726 | 11.79632 | 1461 ft | 0 kts | 85° |
| 2026-04-30 21:52 | 48.35727 | 11.79640 | 1460 ft | 3 kts | 85° |
| 2026-04-30 21:53 | 48.35731 | 11.79692 | 1460 ft | 1 kts | 82° |
| 2026-04-30 21:53 | 48.35731 | 11.79694 | 1460 ft | 0 kts | 82° |